createdAt,value
2018-07-15T00:02:25.933Z,12.40
2018-07-15T00:04:54.511Z,12.40
2018-07-15T00:07:23.044Z,12.40
2018-07-15T00:09:51.659Z,12.40
2018-07-15T00:12:20.226Z,12.30
2018-07-15T00:14:48.826Z,12.30
2018-07-15T00:17:17.369Z,12.30
2018-07-15T00:22:14.252Z,12.20
2018-07-15T00:24:42.806Z,12.20
2018-07-15T00:29:39.669Z,12.20
2018-07-15T00:32:08.264Z,12.10
2018-07-15T00:34:36.827Z,12.00
2018-07-15T00:39:33.720Z,12.00
2018-07-15T00:42:02.364Z,11.90
2018-07-15T00:44:30.984Z,11.90
2018-07-15T00:46:59.583Z,11.90
2018-07-15T00:49:29.210Z,11.90
2018-07-15T00:51:58.336Z,11.90
2018-07-15T00:54:27.328Z,11.90
2018-07-15T00:56:55.867Z,11.90
2018-07-15T00:59:24.466Z,11.80
2018-07-15T01:01:52.984Z,11.70
2018-07-15T01:04:21.602Z,11.70
2018-07-15T01:06:50.146Z,11.70
2018-07-15T01:09:18.764Z,11.60
2018-07-15T01:11:47.268Z,11.60
2018-07-15T01:14:15.919Z,11.60
2018-07-15T01:16:44.451Z,11.60
2018-07-15T01:19:13.035Z,11.60
2018-07-15T01:21:41.552Z,11.50
2018-07-15T01:29:06.758Z,11.40
2018-07-15T01:31:35.285Z,11.40
2018-07-15T01:34:03.834Z,11.40
2018-07-15T01:36:32.430Z,11.40
2018-07-15T01:41:30.211Z,11.30
2018-07-15T01:46:29.121Z,11.40
2018-07-15T01:51:28.835Z,11.40
2018-07-15T01:53:57.444Z,11.30
2018-07-15T01:58:54.282Z,11.30
2018-07-15T02:01:22.873Z,11.20
2018-07-15T02:03:51.418Z,11.20
2018-07-15T02:06:19.955Z,11.10
2018-07-15T02:08:48.527Z,11.10
2018-07-15T02:16:13.694Z,11.10
2018-07-15T02:18:42.269Z,11.10
2018-07-15T02:21:10.847Z,11.00
2018-07-15T02:23:39.379Z,11.00
2018-07-15T02:26:07.950Z,11.00
2018-07-15T02:28:36.497Z,11.00
2018-07-15T02:31:05.190Z,10.90
2018-07-15T02:33:33.708Z,11.00
2018-07-15T02:36:02.303Z,10.90
2018-07-15T02:38:30.912Z,10.90
2018-07-15T02:41:00.571Z,10.90
2018-07-15T02:43:30.213Z,10.90
2018-07-15T02:45:59.995Z,10.80
2018-07-15T02:48:29.597Z,10.80
2018-07-15T02:50:59.395Z,10.80
2018-07-15T02:53:27.985Z,10.80
2018-07-15T02:55:57.400Z,10.80
2018-07-15T02:58:26.028Z,10.80
2018-07-15T03:03:22.840Z,10.80
2018-07-15T03:05:51.369Z,10.80
2018-07-15T03:10:48.218Z,10.70
2018-07-15T03:15:45.036Z,10.70
2018-07-15T03:18:13.608Z,10.70
2018-07-15T03:20:42.246Z,10.70
2018-07-15T03:25:39.065Z,10.70
2018-07-15T03:28:07.631Z,10.70
2018-07-15T03:30:36.184Z,10.70
2018-07-15T03:33:04.825Z,10.70
2018-07-15T03:35:33.386Z,10.70
2018-07-15T03:38:01.960Z,10.70
2018-07-15T03:40:30.500Z,10.80
2018-07-15T03:45:28.740Z,10.80
2018-07-15T03:47:57.378Z,10.80
2018-07-15T03:52:54.280Z,10.90
2018-07-15T03:55:22.888Z,10.90
2018-07-15T03:57:51.781Z,11.00
2018-07-15T04:00:20.657Z,11.00
2018-07-15T04:02:49.199Z,11.10
2018-07-15T04:05:17.812Z,11.10
2018-07-15T04:07:46.399Z,11.20
2018-07-15T04:10:14.980Z,11.30
2018-07-15T04:12:43.571Z,11.40
2018-07-15T04:15:12.119Z,11.50
2018-07-15T04:17:40.698Z,11.60
2018-07-15T04:20:09.348Z,11.70
2018-07-15T04:22:37.871Z,11.80
2018-07-15T04:25:06.533Z,11.90
2018-07-15T04:34:59.948Z,12.30
2018-07-15T04:39:58.795Z,12.50
2018-07-15T04:42:27.410Z,12.60
2018-07-15T04:44:56.029Z,12.70
2018-07-15T04:47:24.604Z,12.90
2018-07-15T04:49:53.196Z,13.00
2018-07-15T04:52:21.785Z,13.20
2018-07-15T04:54:50.318Z,13.40
2018-07-15T04:57:18.872Z,13.70
2018-07-15T04:59:47.436Z,13.90
2018-07-15T05:04:44.247Z,14.40
2018-07-15T05:07:12.752Z,14.70
2018-07-15T05:12:09.567Z,15.00
2018-07-15T05:14:38.079Z,15.20
2018-07-15T05:17:06.688Z,15.50
2018-07-15T05:22:03.482Z,15.80
2018-07-15T05:24:31.984Z,16.00
2018-07-15T05:27:00.562Z,16.40
2018-07-15T05:29:29.917Z,16.70
2018-07-15T05:31:59.196Z,17.00
2018-07-15T05:34:28.471Z,17.30
2018-07-15T05:36:57.458Z,17.40
2018-07-15T05:39:26.028Z,17.50
2018-07-15T05:41:54.650Z,17.60
2018-07-15T05:44:23.275Z,17.80
2018-07-15T05:46:51.832Z,18.00
2018-07-15T05:51:48.757Z,18.20
2018-07-15T05:54:17.541Z,18.10
2018-07-15T05:56:46.110Z,18.20
2018-07-15T05:59:14.727Z,18.20
2018-07-15T06:01:43.289Z,18.00
2018-07-15T06:04:11.863Z,17.90
2018-07-15T06:06:40.414Z,17.70
2018-07-15T06:09:08.990Z,17.80
2018-07-15T06:11:37.521Z,17.90
2018-07-15T06:14:06.187Z,18.10
2018-07-15T06:16:34.733Z,18.20
2018-07-15T06:24:01.002Z,18.70
2018-07-15T06:26:30.739Z,18.90
2018-07-15T06:29:00.228Z,19.00
2018-07-15T06:31:29.821Z,19.20
2018-07-15T06:36:28.504Z,19.30
2018-07-15T06:38:57.702Z,19.30
2018-07-15T06:43:54.588Z,19.50
2018-07-15T06:46:23.161Z,19.60
2018-07-15T06:51:20.162Z,19.90
2018-07-15T06:53:52.265Z,20.00
2018-07-15T06:56:23.314Z,20.10
2018-07-15T06:58:55.324Z,20.10
2018-07-15T07:01:29.835Z,20.20
2018-07-15T07:04:03.446Z,20.20
2018-07-15T07:06:37.090Z,20.20
2018-07-15T07:09:09.786Z,20.30
2018-07-15T07:14:15.648Z,20.30
2018-07-15T07:16:49.345Z,20.40
2018-07-15T07:19:20.645Z,20.40
2018-07-15T07:21:51.100Z,20.40
2018-07-15T07:24:24.430Z,20.50
2018-07-15T07:29:25.788Z,20.80
2018-07-15T07:31:59.541Z,20.90
2018-07-15T07:34:31.935Z,21.00
2018-07-15T07:37:03.767Z,21.20
2018-07-15T07:39:38.115Z,21.40
2018-07-15T07:42:11.939Z,21.60
2018-07-15T07:44:45.419Z,21.70
2018-07-15T07:47:14.150Z,21.90
2018-07-15T07:57:08.028Z,21.60
2018-07-15T07:59:36.608Z,21.50
2018-07-15T08:02:06.662Z,21.40
2018-07-15T08:07:03.582Z,21.60
2018-07-15T08:09:32.343Z,21.80
2018-07-15T08:12:00.902Z,21.80
2018-07-15T08:16:58.528Z,21.30
2018-07-15T08:19:27.101Z,21.00
2018-07-15T08:21:55.823Z,20.70
2018-07-15T08:24:24.535Z,20.80
2018-07-15T08:29:21.389Z,21.30
2018-07-15T08:34:18.452Z,21.90
2018-07-15T08:36:47.045Z,22.10
2018-07-15T08:39:15.699Z,22.50
2018-07-15T08:41:44.280Z,22.80
2018-07-15T08:44:12.865Z,23.00
2018-07-15T08:46:41.571Z,23.00
2018-07-15T08:51:38.436Z,22.70
2018-07-15T08:59:03.845Z,22.40
2018-07-15T09:01:32.788Z,22.60
2018-07-15T09:04:01.495Z,22.70
2018-07-15T09:06:30.487Z,22.80
2018-07-15T09:08:59.943Z,22.80
2018-07-15T09:11:30.514Z,22.90
2018-07-15T09:14:00.014Z,23.20
2018-07-15T09:16:29.374Z,23.20
2018-07-15T09:18:58.422Z,23.40
2018-07-15T09:21:27.756Z,23.40
2018-07-15T09:23:56.477Z,23.30
2018-07-15T09:26:26.118Z,23.30
2018-07-15T09:28:54.769Z,23.30
2018-07-15T09:31:23.363Z,23.40
2018-07-15T09:33:52.149Z,23.50
2018-07-15T09:36:20.871Z,23.50
2018-07-15T09:38:49.587Z,23.40
2018-07-15T09:41:18.236Z,23.30
2018-07-15T09:43:46.963Z,23.20
2018-07-15T09:46:15.688Z,23.20
2018-07-15T09:48:45.234Z,23.20
2018-07-15T09:51:13.833Z,23.20
2018-07-15T09:53:42.526Z,23.20
2018-07-15T09:56:11.105Z,23.10
2018-07-15T09:58:39.752Z,23.00
2018-07-15T10:01:08.452Z,22.90
2018-07-15T10:03:37.064Z,22.80
2018-07-15T10:08:34.255Z,22.70
2018-07-15T10:11:02.873Z,22.60
2018-07-15T10:13:31.589Z,22.70
2018-07-15T10:16:00.199Z,22.70
2018-07-15T10:20:58.482Z,22.80
2018-07-15T10:25:56.692Z,22.70
2018-07-15T10:28:25.983Z,22.60
2018-07-15T10:33:22.937Z,22.50
2018-07-15T10:38:19.793Z,22.50
2018-07-15T10:43:17.841Z,22.40
2018-07-15T10:45:46.532Z,22.40
2018-07-15T10:48:15.097Z,22.40
2018-07-15T10:50:43.701Z,22.40
2018-07-15T10:53:12.368Z,22.40
2018-07-15T10:55:40.915Z,22.30
2018-07-15T10:58:09.481Z,22.20
2018-07-15T11:00:38.118Z,22.20
2018-07-15T11:03:06.654Z,22.20
2018-07-15T11:08:03.706Z,21.90
2018-07-15T11:10:32.244Z,21.80
2018-07-15T11:13:00.841Z,21.90
2018-07-15T11:15:30.400Z,21.90
2018-07-15T11:17:59.962Z,21.90
2018-07-15T11:20:29.834Z,21.80
2018-07-15T11:22:59.048Z,21.80
2018-07-15T11:25:29.360Z,21.80
2018-07-15T11:27:59.659Z,21.70
2018-07-15T11:30:30.041Z,21.70
2018-07-15T11:32:59.540Z,21.80
2018-07-15T11:35:28.444Z,21.80
2018-07-15T11:37:57.430Z,21.90
2018-07-15T11:40:27.407Z,21.90
2018-07-15T11:42:56.055Z,22.00
2018-07-15T11:45:31.046Z,22.00
2018-07-15T11:48:00.199Z,22.00
2018-07-15T11:52:58.827Z,22.10
2018-07-15T11:55:28.400Z,22.10
2018-07-15T12:00:26.153Z,22.20
2018-07-15T12:02:54.953Z,22.30
2018-07-15T12:05:23.669Z,22.30
2018-07-15T12:07:52.443Z,22.40
2018-07-15T12:12:49.403Z,22.50
2018-07-15T12:20:14.941Z,22.80
2018-07-15T12:22:43.661Z,22.80
2018-07-15T12:25:13.379Z,22.80
2018-07-15T12:27:42.289Z,22.90
2018-07-15T12:30:10.988Z,22.90
2018-07-15T12:32:39.608Z,23.00
2018-07-15T12:37:36.952Z,23.20
2018-07-15T12:40:05.636Z,23.40
2018-07-15T12:42:34.252Z,23.50
2018-07-15T12:45:05.044Z,23.60
2018-07-15T12:47:33.683Z,23.70
2018-07-15T12:52:30.631Z,23.80
2018-07-15T12:54:59.975Z,23.80
2018-07-15T12:57:29.301Z,23.90
2018-07-15T12:59:58.530Z,24.00
2018-07-15T13:04:57.825Z,24.30
2018-07-15T13:07:26.559Z,24.50
2018-07-15T13:09:55.192Z,24.60
2018-07-15T13:12:23.814Z,24.70
2018-07-15T13:14:55.682Z,24.80
2018-07-15T13:17:24.409Z,25.00
2018-07-15T13:19:53.106Z,25.30
2018-07-15T13:22:21.773Z,25.40
2018-07-15T13:24:50.423Z,25.40
2018-07-15T13:27:18.999Z,25.50
2018-07-15T13:32:15.948Z,25.50
2018-07-15T13:37:12.745Z,25.70
2018-07-15T13:39:41.338Z,25.60
2018-07-15T13:42:09.977Z,25.60
2018-07-15T13:47:06.874Z,25.80
2018-07-15T13:49:35.428Z,25.90
2018-07-15T13:52:04.030Z,25.90
2018-07-15T13:54:32.699Z,25.90
2018-07-15T13:57:01.280Z,25.80
2018-07-15T14:01:58.533Z,25.60
2018-07-15T14:06:56.180Z,25.50
2018-07-15T14:09:24.713Z,25.60
2018-07-15T14:14:21.545Z,25.70
2018-07-15T14:16:50.129Z,25.70
2018-07-15T14:19:18.699Z,25.80
2018-07-15T14:21:47.256Z,26.00
2018-07-15T14:24:15.909Z,26.10
2018-07-15T14:26:44.464Z,26.10
2018-07-15T14:29:13.384Z,26.10
2018-07-15T14:31:42.076Z,26.00
2018-07-15T14:34:11.449Z,25.90
2018-07-15T14:39:08.331Z,25.50
2018-07-15T14:41:36.901Z,25.60
2018-07-15T14:46:33.813Z,25.60
2018-07-15T14:49:02.498Z,25.50
2018-07-15T14:51:31.054Z,25.60
2018-07-15T14:54:00.781Z,25.60
2018-07-15T14:56:30.318Z,25.60
2018-07-15T14:59:00.163Z,25.70
2018-07-15T15:01:29.785Z,25.70
2018-07-15T15:03:59.515Z,25.60
2018-07-15T15:06:28.520Z,25.60
2018-07-15T15:08:57.623Z,25.50
2018-07-15T15:11:26.199Z,25.50
2018-07-15T15:13:54.787Z,25.50
2018-07-15T15:16:23.371Z,25.40
2018-07-15T15:18:51.939Z,25.40
2018-07-15T15:21:20.540Z,25.30
2018-07-15T15:23:49.056Z,25.20
2018-07-15T15:26:17.652Z,25.20
2018-07-15T15:28:46.177Z,25.20
2018-07-15T15:31:14.774Z,25.10
2018-07-15T15:33:43.498Z,25.10
2018-07-15T15:36:12.037Z,24.90
2018-07-15T15:38:40.565Z,24.90
2018-07-15T15:41:09.118Z,24.80
2018-07-15T15:43:37.724Z,24.70
2018-07-15T15:48:35.011Z,24.60
2018-07-15T15:51:03.759Z,24.50
2018-07-15T15:53:32.675Z,24.40
2018-07-15T16:00:58.567Z,24.30
2018-07-15T16:03:27.681Z,24.20
2018-07-15T16:05:56.253Z,24.20
2018-07-15T16:08:24.854Z,24.20
2018-07-15T16:10:53.410Z,24.20
2018-07-15T16:13:21.999Z,24.10
2018-07-15T16:15:50.597Z,24.10
2018-07-15T16:18:19.147Z,24.10
2018-07-15T16:20:47.707Z,24.10
2018-07-15T16:25:44.622Z,24.10
2018-07-15T16:28:13.150Z,24.10
2018-07-15T16:35:38.290Z,24.00
2018-07-15T16:38:06.946Z,23.90
2018-07-15T16:40:35.464Z,23.90
2018-07-15T16:43:04.028Z,23.80
2018-07-15T16:48:00.872Z,23.80
2018-07-15T16:50:30.449Z,23.70
2018-07-15T16:53:00.285Z,23.70
2018-07-15T16:55:29.750Z,23.70
2018-07-15T16:57:59.430Z,23.60
2018-07-15T17:00:28.825Z,23.60
2018-07-15T17:05:26.116Z,23.50
2018-07-15T17:07:54.723Z,23.50
2018-07-15T17:10:23.300Z,23.50
2018-07-15T17:12:51.868Z,23.50
2018-07-15T17:15:20.523Z,23.50
2018-07-15T17:17:49.132Z,23.40
2018-07-15T17:20:17.812Z,23.50
2018-07-15T17:22:46.424Z,23.40
2018-07-15T17:25:15.176Z,23.40
2018-07-15T17:27:43.797Z,23.40
2018-07-15T17:30:12.409Z,23.40
2018-07-15T17:32:40.980Z,23.40
2018-07-15T17:35:09.544Z,23.30
2018-07-15T17:37:38.315Z,23.20
2018-07-15T17:40:06.935Z,23.20
2018-07-15T17:42:35.581Z,23.10
2018-07-15T17:45:04.501Z,23.00
2018-07-15T17:47:33.339Z,22.90
2018-07-15T17:52:30.364Z,22.80
2018-07-15T17:54:59.602Z,22.80
2018-07-15T17:59:57.651Z,22.60
2018-07-15T18:02:26.261Z,22.60
2018-07-15T18:07:23.221Z,22.40
2018-07-15T18:12:20.189Z,22.20
2018-07-15T18:17:18.138Z,22.00
2018-07-15T18:19:46.748Z,21.90
2018-07-15T18:22:15.363Z,21.80
2018-07-15T18:27:12.544Z,21.70
2018-07-15T18:29:41.148Z,21.70
2018-07-15T18:32:09.740Z,21.50
2018-07-15T18:34:38.308Z,21.30
2018-07-15T18:37:06.886Z,21.20
2018-07-15T18:39:35.592Z,21.00
2018-07-15T18:42:04.160Z,20.80
2018-07-15T18:44:32.800Z,20.70
2018-07-15T18:49:29.838Z,20.40
2018-07-15T18:51:59.457Z,20.30
2018-07-15T18:54:28.723Z,20.10
2018-07-15T18:56:57.908Z,20.00
2018-07-15T18:59:26.536Z,19.80
2018-07-15T19:01:55.139Z,19.70
2018-07-15T19:04:23.764Z,19.60
2018-07-15T19:06:52.338Z,19.40
2018-07-15T19:09:20.928Z,19.20
2018-07-15T19:11:49.507Z,19.10
2018-07-15T19:14:18.205Z,18.90
2018-07-15T19:16:46.784Z,18.80
2018-07-15T19:19:15.364Z,18.70
2018-07-15T19:21:43.944Z,18.50
2018-07-15T19:24:12.611Z,18.40
2018-07-15T19:26:41.225Z,18.20
2018-07-15T19:29:09.808Z,18.10
2018-07-15T19:31:38.423Z,18.00
2018-07-15T19:34:07.056Z,17.90
2018-07-15T19:36:36.281Z,17.80
2018-07-15T19:39:05.482Z,17.70
2018-07-15T19:41:34.176Z,17.60
2018-07-15T19:44:02.840Z,17.50
2018-07-15T19:46:31.431Z,17.40
2018-07-15T19:49:01.310Z,17.30
2018-07-15T19:51:30.790Z,17.20
2018-07-15T19:56:28.688Z,17.00
2018-07-15T19:58:57.962Z,17.00
2018-07-15T20:03:54.935Z,16.80
2018-07-15T20:08:51.830Z,16.70
2018-07-15T20:11:20.440Z,16.70
2018-07-15T20:13:49.011Z,16.60
2018-07-15T20:16:18.765Z,16.50
2018-07-15T20:21:16.711Z,16.40
2018-07-15T20:23:45.299Z,16.40
2018-07-15T20:26:13.934Z,16.30
2018-07-15T20:31:10.800Z,16.20
2018-07-15T20:33:39.358Z,16.10
2018-07-15T20:36:07.942Z,16.10
2018-07-15T20:38:36.559Z,16.00
2018-07-15T20:41:05.237Z,16.00
2018-07-15T20:43:33.861Z,15.90
2018-07-15T20:46:02.434Z,15.90
2018-07-15T20:48:32.084Z,15.80
2018-07-15T20:51:01.327Z,15.80
2018-07-15T20:53:30.496Z,15.70
2018-07-15T20:56:00.424Z,15.70
2018-07-15T20:58:30.433Z,15.60
2018-07-15T21:01:00.125Z,15.60
2018-07-15T21:03:29.596Z,15.60
2018-07-15T21:05:58.696Z,15.50
2018-07-15T21:08:28.561Z,15.60
2018-07-15T21:10:59.021Z,15.50
2018-07-15T21:13:28.853Z,15.40
2018-07-15T21:15:58.715Z,15.40
2018-07-15T21:18:28.914Z,15.30
2018-07-15T21:20:58.542Z,15.30
2018-07-15T21:23:28.550Z,15.20
2018-07-15T21:25:57.708Z,15.20
2018-07-15T21:28:26.362Z,15.10
2018-07-15T21:30:54.992Z,15.10
2018-07-15T21:33:23.606Z,15.00
2018-07-15T21:35:52.184Z,15.00
2018-07-15T21:45:45.831Z,14.80
2018-07-15T21:48:14.454Z,14.70
2018-07-15T21:50:43.058Z,14.60
2018-07-15T21:53:11.621Z,14.60
2018-07-15T21:55:40.276Z,14.60
2018-07-15T21:58:08.924Z,14.50
2018-07-15T22:00:37.657Z,14.50
2018-07-15T22:03:06.349Z,14.50
2018-07-15T22:05:34.985Z,14.50
2018-07-15T22:08:14.899Z,14.40
2018-07-15T22:10:44.961Z,14.40
2018-07-15T22:13:13.652Z,14.30
2018-07-15T22:15:42.622Z,14.30
2018-07-15T22:18:11.309Z,14.30
2018-07-15T22:20:40.114Z,14.20
2018-07-15T22:23:08.942Z,14.10
2018-07-15T22:25:37.575Z,14.10
2018-07-15T22:28:06.292Z,14.10
2018-07-15T22:30:34.922Z,14.00
2018-07-15T22:35:31.992Z,14.00
2018-07-15T22:40:30.127Z,13.90
2018-07-15T22:42:59.463Z,13.90
2018-07-15T22:45:28.748Z,13.80
2018-07-15T22:47:57.975Z,13.80
2018-07-15T22:50:26.572Z,13.80
2018-07-15T22:57:51.699Z,13.70
2018-07-15T23:02:48.649Z,13.60
2018-07-15T23:05:39.660Z,13.60
2018-07-15T23:08:08.621Z,13.60
2018-07-15T23:10:37.296Z,13.50
2018-07-15T23:13:07.621Z,13.50
2018-07-15T23:15:36.661Z,13.40
2018-07-15T23:20:34.405Z,13.30
2018-07-15T23:23:03.949Z,13.30
2018-07-15T23:25:32.895Z,13.30
2018-07-15T23:28:02.263Z,13.30
2018-07-15T23:30:31.486Z,13.30
2018-07-15T23:33:01.431Z,13.20
2018-07-15T23:35:31.644Z,13.20
2018-07-15T23:38:00.896Z,13.20
2018-07-15T23:40:30.212Z,13.20
2018-07-15T23:43:00.212Z,13.10
2018-07-15T23:45:30.539Z,13.10
2018-07-15T23:48:00.256Z,13.10
2018-07-15T23:50:29.527Z,13.20
2018-07-15T23:57:56.138Z,13.10
